sensor_id;sensor_type;location;lat;lon;timestamp;pressure;altitude;pressure_sealevel;temperature;humidity
40982;BME280;26708;50.304;19.028;2023-01-29T00:11:57;99271.41;;;1.39;56.14
40982;BME280;26708;50.304;19.028;2023-01-29T00:18:57;98982.19;;;-0.47;56.00
40982;BME280;26708;50.304;19.028;2023-01-29T00:32:02;98971.75;;;-0.67;55.66
40982;BME280;26708;50.304;19.028;2023-01-29T00:38:05;98981.38;;;-0.63;55.51
40982;BME280;26708;50.304;19.028;2023-01-29T00:40:40;98973.88;;;-0.59;55.53
40982;BME280;26708;50.304;19.028;2023-01-29T00:43:08;99215.66;;;0.85;55.82
40982;BME280;26708;50.304;19.028;2023-01-29T00:45:34;99286.63;;;1.34;56.34
40982;BME280;26708;50.304;19.028;2023-01-29T00:48:27;99115.19;;;0.28;55.78
40982;BME280;26708;50.304;19.028;2023-01-29T00:51:15;98979.38;;;-0.51;55.72
40982;BME280;26708;50.304;19.028;2023-01-29T00:56:56;99158.66;;;0.41;56.57
40982;BME280;26708;50.304;19.028;2023-01-29T00:59:53;99000.59;;;-0.55;56.23
40982;BME280;26708;50.304;19.028;2023-01-29T01:07:10;99310.09;;;1.21;56.98
40982;BME280;26708;50.304;19.028;2023-01-29T01:10:15;98996.50;;;-0.69;56.72
40982;BME280;26708;50.304;19.028;2023-01-29T01:13:22;99299.44;;;1.14;56.91
40982;BME280;26708;50.304;19.028;2023-01-29T01:20:42;99269.19;;;0.73;56.95
40982;BME280;26708;50.304;19.028;2023-01-29T02:06:26;99020.34;;;-0.89;55.34
40982;BME280;26708;50.304;19.028;2023-01-29T02:12:45;98953.19;;;-1.32;54.60
40982;BME280;26708;50.304;19.028;2023-01-29T02:14:55;99116.63;;;-0.30;54.17
40982;BME280;26708;50.304;19.028;2023-01-29T02:17:04;99268.47;;;0.58;54.54
40982;BME280;26708;50.304;19.028;2023-01-29T02:19:31;99170.84;;;0.09;54.32
40982;BME280;26708;50.304;19.028;2023-01-29T02:39:22;98907.44;;;-1.23;52.81
40982;BME280;26708;50.304;19.028;2023-01-29T02:42:01;99246.69;;;0.69;52.64
40982;BME280;26708;50.304;19.028;2023-01-29T02:44:58;99074.69;;;-0.29;52.81
40982;BME280;26708;50.304;19.028;2023-01-29T02:47:50;98966.31;;;-1.08;52.49
40982;BME280;26708;50.304;19.028;2023-01-29T02:59:13;98973.50;;;-1.19;51.92
40982;BME280;26708;50.304;19.028;2023-01-29T03:02:43;98987.91;;;-1.05;52.07
40982;BME280;26708;50.304;19.028;2023-01-29T03:05:22;99288.31;;;0.78;51.97
40982;BME280;26708;50.304;19.028;2023-01-29T03:08:49;99130.94;;;-0.00;51.35
40982;BME280;26708;50.304;19.028;2023-01-29T03:14:37;98966.19;;;-1.11;51.48
40982;BME280;26708;50.304;19.028;2023-01-29T03:17:56;99034.00;;;-0.73;51.11
40982;BME280;26708;50.304;19.028;2023-01-29T03:20:37;99275.28;;;0.75;50.88
40982;BME280;26708;50.304;19.028;2023-01-29T03:23:19;99034.44;;;-0.81;50.39
40982;BME280;26708;50.304;19.028;2023-01-29T03:25:58;99220.31;;;0.21;50.54
40982;BME280;26708;50.304;19.028;2023-01-29T03:28:40;99284.13;;;0.63;50.57
40982;BME280;26708;50.304;19.028;2023-01-29T03:31:52;99116.31;;;-0.36;50.50
40982;BME280;26708;50.304;19.028;2023-01-29T03:34:55;98990.50;;;-1.21;50.11
40982;BME280;26708;50.304;19.028;2023-01-29T03:37:41;98988.16;;;-1.16;50.27
40982;BME280;26708;50.304;19.028;2023-01-29T03:40:54;98977.91;;;-1.16;49.72
40982;BME280;26708;50.304;19.028;2023-01-29T03:44:16;99273.66;;;0.60;49.61
40982;BME280;26708;50.304;19.028;2023-01-29T03:47:23;99293.31;;;0.58;49.46
40982;BME280;26708;50.304;19.028;2023-01-29T03:50:04;99271.69;;;0.54;49.35
40982;BME280;26708;50.304;19.028;2023-01-29T03:56:14;99281.84;;;0.51;49.20
40982;BME280;26708;50.304;19.028;2023-01-29T03:58:38;99047.34;;;-0.80;49.23
40982;BME280;26708;50.304;19.028;2023-01-29T04:00:57;99009.09;;;-0.91;49.15
40982;BME280;26708;50.304;19.028;2023-01-29T04:04:55;99262.31;;;0.55;48.51
40982;BME280;26708;50.304;19.028;2023-01-29T04:08:47;98922.72;;;-1.59;48.19
40982;BME280;26708;50.304;19.028;2023-01-29T04:17:17;99161.00;;;-0.34;47.84
40982;BME280;26708;50.304;19.028;2023-01-29T04:20:02;99256.19;;;0.35;48.25
40982;BME280;26708;50.304;19.028;2023-01-29T04:22:47;98954.19;;;-1.46;48.48
40982;BME280;26708;50.304;19.028;2023-01-29T04:25:38;98947.84;;;-1.52;47.90
40982;BME280;26708;50.304;19.028;2023-01-29T04:28:54;99239.22;;;0.22;47.54
40982;BME280;26708;50.304;19.028;2023-01-29T04:32:30;98926.50;;;-1.69;47.96
40982;BME280;26708;50.304;19.028;2023-01-29T04:39:58;98872.44;;;-1.89;48.71
40982;BME280;26708;50.304;19.028;2023-01-29T04:43:08;99228.47;;;0.30;49.08
40982;BME280;26708;50.304;19.028;2023-01-29T04:50:40;99018.16;;;-0.64;48.63
40982;BME280;26708;50.304;19.028;2023-01-29T04:57:25;99116.25;;;-0.03;48.42
40982;BME280;26708;50.304;19.028;2023-01-29T05:00:55;99182.44;;;0.36;48.72
40982;BME280;26708;50.304;19.028;2023-01-29T05:15:22;99126.00;;;0.04;48.92
40982;BME280;26708;50.304;19.028;2023-01-29T05:17:42;98928.31;;;-1.15;48.75
40982;BME280;26708;50.304;19.028;2023-01-29T05:19:49;98887.91;;;-1.37;48.90
40982;BME280;26708;50.304;19.028;2023-01-29T05:21:58;99214.19;;;0.54;48.93
40982;BME280;26708;50.304;19.028;2023-01-29T05:24:09;99222.06;;;0.57;49.22
40982;BME280;26708;50.304;19.028;2023-01-29T05:30:29;99200.84;;;0.62;48.68
40982;BME280;26708;50.304;19.028;2023-01-29T05:33:51;99140.50;;;0.20;48.63
40982;BME280;26708;50.304;19.028;2023-01-29T05:35:58;98992.75;;;-0.76;48.58
40982;BME280;26708;50.304;19.028;2023-01-29T05:38:03;99133.03;;;0.25;48.58
40982;BME280;26708;50.304;19.028;2023-01-29T05:40:12;99198.34;;;0.64;48.53
40982;BME280;26708;50.304;19.028;2023-01-29T05:42:30;98920.56;;;-0.99;48.62
40982;BME280;26708;50.304;19.028;2023-01-29T06:01:38;98919.41;;;-1.06;49.30
40982;BME280;26708;50.304;19.028;2023-01-29T06:10:02;99152.16;;;0.30;50.17
40982;BME280;26708;50.304;19.028;2023-01-29T06:13:16;98908.31;;;-1.22;50.02
40982;BME280;26708;50.304;19.028;2023-01-29T06:16:12;99230.94;;;0.63;50.11
40982;BME280;26708;50.304;19.028;2023-01-29T06:28:36;99053.84;;;-0.53;50.09
40982;BME280;26708;50.304;19.028;2023-01-29T06:57:57;99150.56;;;0.15;51.63
40982;BME280;26708;50.304;19.028;2023-01-29T07:00:52;99058.75;;;-0.57;52.17
40982;BME280;26708;50.304;19.028;2023-01-29T07:18:21;98902.22;;;-1.24;54.10
40982;BME280;26708;50.304;19.028;2023-01-29T07:20:29;99236.97;;;0.64;54.73
40982;BME280;26708;50.304;19.028;2023-01-29T07:22:40;99246.53;;;0.66;55.12
40982;BME280;26708;50.304;19.028;2023-01-29T07:27:40;99009.50;;;-0.84;56.34
40982;BME280;26708;50.304;19.028;2023-01-29T07:34:32;99038.84;;;-0.61;56.91
40982;BME280;26708;50.304;19.028;2023-01-29T07:36:40;99169.75;;;0.22;57.19
40982;BME280;26708;50.304;19.028;2023-01-29T07:38:50;98957.69;;;-1.10;57.22
40982;BME280;26708;50.304;19.028;2023-01-29T07:41:09;98987.47;;;-0.96;57.31
40982;BME280;26708;50.304;19.028;2023-01-29T07:43:32;99074.41;;;-0.35;57.38
40982;BME280;26708;50.304;19.028;2023-01-29T08:01:09;98984.78;;;-1.15;57.40
40982;BME280;26708;50.304;19.028;2023-01-29T08:03:20;99278.31;;;0.49;57.53
40982;BME280;26708;50.304;19.028;2023-01-29T08:05:43;99116.38;;;-0.52;57.49
40982;BME280;26708;50.304;19.028;2023-01-29T08:07:51;99152.47;;;-0.33;57.86
40982;BME280;26708;50.304;19.028;2023-01-29T08:09:58;99144.66;;;-0.35;57.57
40982;BME280;26708;50.304;19.028;2023-01-29T08:12:03;99131.91;;;-0.33;57.54
40982;BME280;26708;50.304;19.028;2023-01-29T08:14:08;99224.06;;;0.10;57.15
40982;BME280;26708;50.304;19.028;2023-01-29T08:16:19;99222.59;;;0.15;57.15
40982;BME280;26708;50.304;19.028;2023-01-29T08:18:37;99190.09;;;-0.00;57.38
40982;BME280;26708;50.304;19.028;2023-01-29T08:20:44;99171.72;;;-0.25;56.87
40982;BME280;26708;50.304;19.028;2023-01-29T08:22:58;99287.97;;;0.53;57.34
40982;BME280;26708;50.304;19.028;2023-01-29T08:36:42;99154.28;;;-0.13;56.05
40982;BME280;26708;50.304;19.028;2023-01-29T08:38:48;99141.19;;;-0.19;55.99
40982;BME280;26708;50.304;19.028;2023-01-29T08:40:55;99000.94;;;-1.00;55.64
40982;BME280;26708;50.304;19.028;2023-01-29T08:43:03;99139.03;;;-0.28;55.47
40982;BME280;26708;50.304;19.028;2023-01-29T08:45:17;99116.41;;;-0.35;55.38
40982;BME280;26708;50.304;19.028;2023-01-29T08:47:24;99102.50;;;-0.38;54.97
40982;BME280;26708;50.304;19.028;2023-01-29T08:49:38;99074.09;;;-0.59;55.05
40982;BME280;26708;50.304;19.028;2023-01-29T08:51:47;98978.66;;;-1.01;55.28
40982;BME280;26708;50.304;19.028;2023-01-29T08:53:55;99131.25;;;-0.12;54.60
40982;BME280;26708;50.304;19.028;2023-01-29T09:18:13;98941.47;;;-0.92;53.21
40982;BME280;26708;50.304;19.028;2023-01-29T09:21:19;99179.09;;;0.56;53.54
40982;BME280;26708;50.304;19.028;2023-01-29T09:23:51;98954.66;;;-0.84;52.79
40982;BME280;26708;50.304;19.028;2023-01-29T09:26:17;98973.66;;;-0.81;53.05
40982;BME280;26708;50.304;19.028;2023-01-29T09:56:40;98954.44;;;-1.06;48.61
40982;BME280;26708;50.304;19.028;2023-01-29T13:04:53;98690.81;;;0.11;45.08
40982;BME280;26708;50.304;19.028;2023-01-29T13:10:43;98694.97;;;0.29;44.68
40982;BME280;26708;50.304;19.028;2023-01-29T13:13:25;98723.13;;;0.47;44.56
40982;BME280;26708;50.304;19.028;2023-01-29T13:16:14;98999.16;;;2.08;44.89
40982;BME280;26708;50.304;19.028;2023-01-29T13:19:24;98970.75;;;2.08;44.89
40982;BME280;26708;50.304;19.028;2023-01-29T13:22:25;98977.03;;;2.15;44.71
40982;BME280;26708;50.304;19.028;2023-01-29T13:25:56;98827.38;;;1.22;44.44
40982;BME280;26708;50.304;19.028;2023-01-29T13:29:30;98993.47;;;2.17;44.70
40982;BME280;26708;50.304;19.028;2023-01-29T13:35:01;98632.06;;;0.22;44.40
40982;BME280;26708;50.304;19.028;2023-01-29T13:46:32;98812.31;;;1.33;44.85
40982;BME280;26708;50.304;19.028;2023-01-29T13:49:29;98666.16;;;0.38;44.96
40982;BME280;26708;50.304;19.028;2023-01-29T13:52:14;98850.25;;;1.59;45.14
40982;BME280;26708;50.304;19.028;2023-01-29T13:54:57;98938.13;;;2.09;45.42
40982;BME280;26708;50.304;19.028;2023-01-29T13:57:49;98773.91;;;1.17;45.65
40982;BME280;26708;50.304;19.028;2023-01-29T13:59:58;98653.69;;;0.48;45.68
40982;BME280;26708;50.304;19.028;2023-01-29T14:02:22;98811.09;;;1.23;45.72
40982;BME280;26708;50.304;19.028;2023-01-29T14:04:34;98801.53;;;1.21;45.70
40982;BME280;26708;50.304;19.028;2023-01-29T14:07:42;98824.06;;;1.26;45.48
40982;BME280;26708;50.304;19.028;2023-01-29T14:10:12;98927.28;;;1.73;45.89
40982;BME280;26708;50.304;19.028;2023-01-29T14:15:22;98771.53;;;0.77;46.25
40982;BME280;26708;50.304;19.028;2023-01-29T14:21:00;98800.84;;;0.81;46.53
40982;BME280;26708;50.304;19.028;2023-01-29T14:25:50;98921.19;;;1.71;46.47
40982;BME280;26708;50.304;19.028;2023-01-29T14:27:57;98778.78;;;0.87;46.44
40982;BME280;26708;50.304;19.028;2023-01-29T14:30:09;98886.28;;;1.57;46.66
40982;BME280;26708;50.304;19.028;2023-01-29T14:32:25;98936.22;;;1.81;46.69
40982;BME280;26708;50.304;19.028;2023-01-29T14:34:42;98855.38;;;1.35;46.60
40982;BME280;26708;50.304;19.028;2023-01-29T14:37:25;98834.69;;;1.12;46.67
40982;BME280;26708;50.304;19.028;2023-01-29T14:39:53;98645.97;;;0.05;46.57
40982;BME280;26708;50.304;19.028;2023-01-29T14:42:42;98747.41;;;0.53;46.70
40982;BME280;26708;50.304;19.028;2023-01-29T14:45:35;98779.34;;;0.80;46.81
40982;BME280;26708;50.304;19.028;2023-01-29T14:47:53;98780.66;;;0.69;46.78
40982;BME280;26708;50.304;19.028;2023-01-29T14:52:50;98919.50;;;1.50;46.97
40982;BME280;26708;50.304;19.028;2023-01-29T14:55:04;98897.78;;;1.21;47.15
40982;BME280;26708;50.304;19.028;2023-01-29T14:57:15;98868.19;;;1.12;47.22
40982;BME280;26708;50.304;19.028;2023-01-29T14:59:29;98876.66;;;1.09;47.27
40982;BME280;26708;50.304;19.028;2023-01-29T15:01:49;98808.59;;;0.60;47.29
40982;BME280;26708;50.304;19.028;2023-01-29T15:04:02;98940.81;;;1.46;47.41
40982;BME280;26708;50.304;19.028;2023-01-29T15:06:21;98775.66;;;0.52;47.43
40982;BME280;26708;50.304;19.028;2023-01-29T15:08:54;98949.34;;;1.43;47.22
40982;BME280;26708;50.304;19.028;2023-01-29T15:12:05;98804.72;;;0.70;46.97
40982;BME280;26708;50.304;19.028;2023-01-29T15:14:28;98751.25;;;0.42;47.17
40982;BME280;26708;50.304;19.028;2023-01-29T15:16:49;98889.41;;;1.27;47.08
40982;BME280;26708;50.304;19.028;2023-01-29T15:19:13;98700.41;;;0.15;47.08
40982;BME280;26708;50.304;19.028;2023-01-29T15:21:23;98762.59;;;0.47;47.14
40982;BME280;26708;50.304;19.028;2023-01-29T15:23:30;98836.81;;;0.79;47.35
40982;BME280;26708;50.304;19.028;2023-01-29T15:25:49;98865.44;;;1.07;47.44
40982;BME280;26708;50.304;19.028;2023-01-29T15:28:14;98726.53;;;0.25;47.42
40982;BME280;26708;50.304;19.028;2023-01-29T15:30:30;98871.59;;;1.11;47.40
40982;BME280;26708;50.304;19.028;2023-01-29T15:32:40;98822.84;;;0.73;47.61
40982;BME280;26708;50.304;19.028;2023-01-29T15:34:54;98849.88;;;1.04;47.54
40982;BME280;26708;50.304;19.028;2023-01-29T15:42:44;98847.72;;;0.94;47.37
40982;BME280;26708;50.304;19.028;2023-01-29T15:45:18;98788.84;;;0.59;46.89
40982;BME280;26708;50.304;19.028;2023-01-29T15:47:36;98874.63;;;1.23;47.24
40982;BME280;26708;50.304;19.028;2023-01-29T15:52:41;98773.56;;;0.64;47.43
40982;BME280;26708;50.304;19.028;2023-01-29T15:58:41;98582.81;;;-0.31;47.31
40982;BME280;26708;50.304;19.028;2023-01-29T16:10:05;98696.22;;;0.18;47.64
40982;BME280;26708;50.304;19.028;2023-01-29T16:12:59;98910.00;;;1.27;47.99
40982;BME280;26708;50.304;19.028;2023-01-29T16:15:31;98604.75;;;-0.39;48.11
40982;BME280;26708;50.304;19.028;2023-01-29T16:17:41;98835.50;;;0.89;48.16
40982;BME280;26708;50.304;19.028;2023-01-29T16:20:01;98756.97;;;0.35;48.32
40982;BME280;26708;50.304;19.028;2023-01-29T16:22:10;98835.50;;;0.89;48.61
40982;BME280;26708;50.304;19.028;2023-01-29T16:24:33;98567.91;;;-0.60;48.46
40982;BME280;26708;50.304;19.028;2023-01-29T16:26:48;98815.94;;;0.72;48.50
40982;BME280;26708;50.304;19.028;2023-01-29T16:29:07;98837.78;;;0.81;48.65
40982;BME280;26708;50.304;19.028;2023-01-29T16:31:21;98776.59;;;0.54;48.74
40982;BME280;26708;50.304;19.028;2023-01-29T16:33:37;98844.94;;;0.88;48.78
40982;BME280;26708;50.304;19.028;2023-01-29T16:35:54;98886.78;;;1.05;48.78
40982;BME280;26708;50.304;19.028;2023-01-29T16:38:06;98721.22;;;0.01;48.87
40982;BME280;26708;50.304;19.028;2023-01-29T16:40:39;98720.78;;;-0.10;48.95
40982;BME280;26708;50.304;19.028;2023-01-29T16:43:57;98882.19;;;0.96;49.10
40982;BME280;26708;50.304;19.028;2023-01-29T16:46:18;98748.50;;;0.17;49.28
40982;BME280;26708;50.304;19.028;2023-01-29T16:48:32;98572.03;;;-0.84;49.59
40982;BME280;26708;50.304;19.028;2023-01-29T16:50:48;98697.28;;;-0.19;49.50
40982;BME280;26708;50.304;19.028;2023-01-29T16:53:28;98892.03;;;1.06;49.56
40982;BME280;26708;50.304;19.028;2023-01-29T16:58:35;98725.41;;;0.19;49.32
40982;BME280;26708;50.304;19.028;2023-01-29T17:00:47;98733.84;;;0.37;49.46
40982;BME280;26708;50.304;19.028;2023-01-29T17:03:01;98838.59;;;1.02;49.25
40982;BME280;26708;50.304;19.028;2023-01-29T17:05:21;98850.81;;;1.06;49.43
40982;BME280;26708;50.304;19.028;2023-01-29T17:07:35;98877.41;;;1.27;49.27
40982;BME280;26708;50.304;19.028;2023-01-29T17:09:41;98885.34;;;1.33;49.13
40982;BME280;26708;50.304;19.028;2023-01-29T17:11:46;98705.03;;;0.23;49.02
40982;BME280;26708;50.304;19.028;2023-01-29T17:13:54;98809.47;;;0.81;48.98
40982;BME280;26708;50.304;19.028;2023-01-29T17:16:14;98748.66;;;0.63;49.04
40982;BME280;26708;50.304;19.028;2023-01-29T17:21:18;98791.66;;;0.87;48.72
40982;BME280;26708;50.304;19.028;2023-01-29T17:23:33;98739.78;;;0.56;48.86
40982;BME280;26708;50.304;19.028;2023-01-29T17:27:27;98563.84;;;-0.55;48.92
40982;BME280;26708;50.304;19.028;2023-01-29T17:55:21;98761.72;;;0.47;49.37
40982;BME280;26708;50.304;19.028;2023-01-29T18:03:19;98611.31;;;-0.25;49.29
40982;BME280;26708;50.304;19.028;2023-01-29T18:05:26;98745.22;;;0.42;49.05
40982;BME280;26708;50.304;19.028;2023-01-29T18:07:31;98779.84;;;0.50;49.38
40982;BME280;26708;50.304;19.028;2023-01-29T18:09:39;98711.72;;;0.20;49.59
40982;BME280;26708;50.304;19.028;2023-01-29T18:11:50;98675.25;;;-0.12;49.48
40982;BME280;26708;50.304;19.028;2023-01-29T18:13:56;98648.44;;;-0.19;49.57
40982;BME280;26708;50.304;19.028;2023-01-29T18:16:15;98836.75;;;0.98;49.70
40982;BME280;26708;50.304;19.028;2023-01-29T18:18:23;98584.75;;;-0.46;49.59
40982;BME280;26708;50.304;19.028;2023-01-29T18:20:31;98645.47;;;-0.07;49.56
40982;BME280;26708;50.304;19.028;2023-01-29T18:22:38;98610.56;;;-0.23;49.51
40982;BME280;26708;50.304;19.028;2023-01-29T18:24:44;98786.75;;;0.93;49.56
40982;BME280;26708;50.304;19.028;2023-01-29T18:26:52;98633.22;;;0.08;49.49
40982;BME280;26708;50.304;19.028;2023-01-29T18:28:59;98713.59;;;0.44;49.60
40982;BME280;26708;50.304;19.028;2023-01-29T18:31:05;98787.56;;;0.92;49.75
40982;BME280;26708;50.304;19.028;2023-01-29T18:33:09;98669.81;;;0.23;50.25
40982;BME280;26708;50.304;19.028;2023-01-29T18:35:15;98672.31;;;0.21;50.18
40982;BME280;26708;50.304;19.028;2023-01-29T18:40:15;98516.28;;;-0.87;50.21
40982;BME280;26708;50.304;19.028;2023-01-29T18:44:55;98678.69;;;0.09;51.21
40982;BME280;26708;50.304;19.028;2023-01-29T18:47:01;98693.00;;;0.02;51.41
40982;BME280;26708;50.304;19.028;2023-01-29T18:49:08;98646.28;;;-0.08;52.27
40982;BME280;26708;50.304;19.028;2023-01-29T18:51:19;98572.22;;;-0.59;52.62
40982;BME280;26708;50.304;19.028;2023-01-29T18:58:55;98524.31;;;-0.79;52.85
40982;BME280;26708;50.304;19.028;2023-01-29T19:01:02;98672.38;;;0.01;53.11
40982;BME280;26708;50.304;19.028;2023-01-29T19:03:09;98714.06;;;0.34;53.16
40982;BME280;26708;50.304;19.028;2023-01-29T19:05:31;98683.19;;;0.14;53.46
40982;BME280;26708;50.304;19.028;2023-01-29T19:08:02;98626.03;;;-0.21;53.73
40982;BME280;26708;50.304;19.028;2023-01-29T19:10:09;98637.50;;;-0.13;54.04
40982;BME280;26708;50.304;19.028;2023-01-29T19:12:17;98746.31;;;0.48;54.20
40982;BME280;26708;50.304;19.028;2023-01-29T19:14:29;98692.19;;;0.03;54.46
40982;BME280;26708;50.304;19.028;2023-01-29T19:16:34;98747.41;;;0.53;54.91
40982;BME280;26708;50.304;19.028;2023-01-29T19:18:40;98696.47;;;0.24;54.64
40982;BME280;26708;50.304;19.028;2023-01-29T19:20:45;98569.16;;;-0.51;54.77
40982;BME280;26708;50.304;19.028;2023-01-29T19:22:50;98789.44;;;0.74;55.20
40982;BME280;26708;50.304;19.028;2023-01-29T19:24:55;98791.19;;;0.75;55.12
40982;BME280;26708;50.304;19.028;2023-01-29T19:27:00;98760.19;;;0.52;55.50
40982;BME280;26708;50.304;19.028;2023-01-29T19:29:06;98647.94;;;-0.10;55.78
40982;BME280;26708;50.304;19.028;2023-01-29T19:31:14;98710.16;;;0.23;56.21
40982;BME280;26708;50.304;19.028;2023-01-29T19:33:19;98719.22;;;0.34;55.81
40982;BME280;26708;50.304;19.028;2023-01-29T19:35:23;98737.56;;;0.43;55.86
40982;BME280;26708;50.304;19.028;2023-01-29T19:37:31;98639.22;;;-0.14;55.44
40982;BME280;26708;50.304;19.028;2023-01-29T19:39:36;98561.09;;;-0.60;55.75
40982;BME280;26708;50.304;19.028;2023-01-29T19:41:41;98740.66;;;0.35;55.79
40982;BME280;26708;50.304;19.028;2023-01-29T19:43:47;98745.75;;;0.55;55.53
40982;BME280;26708;50.304;19.028;2023-01-29T19:45:56;98703.19;;;0.21;55.25
40982;BME280;26708;50.304;19.028;2023-01-29T19:48:04;98747.03;;;0.44;55.23
40982;BME280;26708;50.304;19.028;2023-01-29T19:50:10;98686.75;;;0.17;55.00
40982;BME280;26708;50.304;19.028;2023-01-29T19:52:15;98611.69;;;-0.16;55.26
40982;BME280;26708;50.304;19.028;2023-01-29T19:54:32;98529.94;;;-0.67;54.90
40982;BME280;26708;50.304;19.028;2023-01-29T19:56:44;98729.63;;;0.59;55.09
40982;BME280;26708;50.304;19.028;2023-01-29T19:58:49;98714.63;;;0.49;55.40
40982;BME280;26708;50.304;19.028;2023-01-29T20:00:59;98764.91;;;0.84;55.37
40982;BME280;26708;50.304;19.028;2023-01-29T20:03:08;98630.75;;;0.11;55.35
40982;BME280;26708;50.304;19.028;2023-01-29T20:05:13;98769.44;;;0.89;55.52
40982;BME280;26708;50.304;19.028;2023-01-29T20:07:18;98774.50;;;0.88;55.13
40982;BME280;26708;50.304;19.028;2023-01-29T20:09:24;98656.91;;;0.21;54.92
40982;BME280;26708;50.304;19.028;2023-01-29T20:11:30;98626.91;;;-0.00;54.85
40982;BME280;26708;50.304;19.028;2023-01-29T20:13:35;98726.00;;;0.54;54.72
40982;BME280;26708;50.304;19.028;2023-01-29T20:15:43;98681.38;;;0.32;54.73
40982;BME280;26708;50.304;19.028;2023-01-29T20:17:48;98725.22;;;0.57;54.70
40982;BME280;26708;50.304;19.028;2023-01-29T20:19:55;98703.97;;;0.40;54.76
40982;BME280;26708;50.304;19.028;2023-01-29T20:22:01;98656.53;;;0.12;54.69
40982;BME280;26708;50.304;19.028;2023-01-29T20:24:09;98567.78;;;-0.43;54.57
40982;BME280;26708;50.304;19.028;2023-01-29T20:26:15;98719.72;;;0.48;54.82
40982;BME280;26708;50.304;19.028;2023-01-29T20:28:23;98657.88;;;0.03;54.92
40982;BME280;26708;50.304;19.028;2023-01-29T20:30:30;98633.72;;;-0.01;54.58
40982;BME280;26708;50.304;19.028;2023-01-29T20:33:16;98764.78;;;0.81;54.44
40982;BME280;26708;50.304;19.028;2023-01-29T20:35:29;98734.59;;;0.55;54.49
40982;BME280;26708;50.304;19.028;2023-01-29T20:37:38;98764.69;;;0.78;54.20
40982;BME280;26708;50.304;19.028;2023-01-29T20:48:11;98530.53;;;-0.74;54.19
40982;BME280;26708;50.304;19.028;2023-01-29T20:50:20;98579.56;;;-0.27;54.15
40982;BME280;26708;50.304;19.028;2023-01-29T20:55:43;98612.03;;;-0.07;54.29
40982;BME280;26708;50.304;19.028;2023-01-29T20:58:10;98486.25;;;-0.89;54.37
40982;BME280;26708;50.304;19.028;2023-01-29T21:01:18;98725.31;;;0.58;54.38
40982;BME280;26708;50.304;19.028;2023-01-29T22:52:33;98263.59;;;-1.15;53.30
40982;BME280;26708;50.304;19.028;2023-01-29T23:10:24;98538.31;;;0.60;53.47
40982;BME280;26708;50.304;19.028;2023-01-29T23:15:00;98409.56;;;-0.36;53.03
40982;BME280;26708;50.304;19.028;2023-01-29T23:17:06;98294.84;;;-0.81;52.94
40982;BME280;26708;50.304;19.028;2023-01-29T23:19:13;98366.34;;;-0.46;53.10
40982;BME280;26708;50.304;19.028;2023-01-29T23:21:19;98364.53;;;-0.49;52.99
40982;BME280;26708;50.304;19.028;2023-01-29T23:23:27;98533.53;;;0.47;53.22
40982;BME280;26708;50.304;19.028;2023-01-29T23:25:36;98515.66;;;0.50;53.20
40982;BME280;26708;50.304;19.028;2023-01-29T23:27:53;98202.03;;;-1.37;53.06
40982;BME280;26708;50.304;19.028;2023-01-29T23:29:59;98332.13;;;-0.45;53.19
40982;BME280;26708;50.304;19.028;2023-01-29T23:32:17;98380.69;;;-0.29;53.00
40982;BME280;26708;50.304;19.028;2023-01-29T23:34:24;98337.72;;;-0.33;53.02
40982;BME280;26708;50.304;19.028;2023-01-29T23:36:29;98182.78;;;-1.26;52.78
40982;BME280;26708;50.304;19.028;2023-01-29T23:38:35;98370.56;;;-0.25;52.61
40982;BME280;26708;50.304;19.028;2023-01-29T23:40:45;98474.25;;;0.44;52.83
40982;BME280;26708;50.304;19.028;2023-01-29T23:42:50;98252.88;;;-0.82;52.78
40982;BME280;26708;50.304;19.028;2023-01-29T23:44:56;98301.75;;;-0.57;52.91
40982;BME280;26708;50.304;19.028;2023-01-29T23:47:02;98476.28;;;0.29;52.95
40982;BME280;26708;50.304;19.028;2023-01-29T23:49:07;98347.31;;;-0.51;53.19
40982;BME280;26708;50.304;19.028;2023-01-29T23:51:15;98489.97;;;0.28;53.35
40982;BME280;26708;50.304;19.028;2023-01-29T23:53:20;98288.06;;;-0.79;53.15
40982;BME280;26708;50.304;19.028;2023-01-29T23:55:25;98222.28;;;-1.23;52.78
40982;BME280;26708;50.304;19.028;2023-01-29T23:59:57;98430.22;;;-0.11;52.78
